Time;durP1;ratioP1;P1;durP2;ratioP2;P2;SDS_P1;SDS_P2;PMS_P1;PMS_P2;Temp;Humidity;BMP_temperature;BMP_pressure;BME280_temperature;BME280_humidity;BME280_pressure;Samples;Min_cycle;Max_cycle;Signal;HPM_P1;HPM_P2
2023/09/19 00:00:27;;;;;;;4.40;1.60;;;17.70;1.00;;;;;;5037556;28;20189;-78
2023/09/19 00:03:31;;;;;;;1.93;1.43;;;17.70;1.00;;;;;;5050223;28;20395;-80
2023/09/19 00:06:36;;;;;;;2.47;1.57;;;17.70;1.00;;;;;;5021967;28;20413;-80
2023/09/19 00:09:10;;;;;;;8.50;1.57;;;17.60;1.00;;;;;;5034721;28;20463;-80
2023/09/19 00:11:38;;;;;;;4.20;1.63;;;17.70;1.00;;;;;;5048060;28;20497;-80
2023/09/19 00:14:08;;;;;;;2.63;1.93;;;17.70;1.00;;;;;;5036376;28;20493;-80
2023/09/19 00:16:49;;;;;;;2.23;1.30;;;17.80;1.00;;;;;;5049035;28;20426;-81
2023/09/19 00:19:54;;;;;;;3.37;2.03;;;17.70;1.00;;;;;;5017499;28;20446;-78
2023/09/19 00:22:32;;;;;;;3.23;1.33;;;17.70;1.00;;;;;;5041383;28;20937;-78
2023/09/19 00:25:07;;;;;;;5.77;1.57;;;17.70;1.00;;;;;;5056674;28;20504;-78
2023/09/19 00:27:41;;;;;;;1.50;1.40;;;17.70;1.00;;;;;;5056728;28;20469;-78
2023/09/19 00:30:16;;;;;;;2.60;1.50;;;17.70;1.00;;;;;;5036551;28;20428;-78
2023/09/19 00:32:43;;;;;;;6.37;1.80;;;17.80;1.00;;;;;;5041357;28;20527;-80
2023/09/19 00:35:37;;;;;;;3.57;1.67;;;17.80;1.00;;;;;;5036415;28;20483;-81
2023/09/19 00:38:07;;;;;;;2.50;1.73;;;17.70;1.00;;;;;;5037246;28;20432;-80
2023/09/19 00:40:36;;;;;;;3.00;1.40;;;17.70;1.00;;;;;;5038925;28;20964;-80
2023/09/19 00:43:08;;;;;;;5.40;1.50;;;17.70;1.00;;;;;;5039898;28;20940;-80
2023/09/19 00:45:38;;;;;;;3.80;1.50;;;17.70;1.00;;;;;;5043735;28;20907;-80
2023/09/19 00:48:08;;;;;;;5.20;1.60;;;17.70;1.00;;;;;;5015528;28;20792;-80
2023/09/19 00:50:41;;;;;;;7.10;1.60;;;17.70;1.00;;;;;;5016837;28;20427;-80
2023/09/19 00:53:23;;;;;;;2.57;1.70;;;17.60;1.00;;;;;;5033879;28;20448;-80
2023/09/19 00:56:24;;;;;;;2.37;1.80;;;17.60;1.00;;;;;;5030734;28;20953;-80
2023/09/19 00:59:12;;;;;;;6.50;1.57;;;17.60;1.00;;;;;;5046398;28;20428;-81
2023/09/19 01:01:56;;;;;;;3.80;1.40;;;17.50;1.00;;;;;;5044738;28;20436;-80
2023/09/19 01:04:23;;;;;;;3.07;1.33;;;17.60;1.00;;;;;;5024447;28;20426;-80
2023/09/19 01:06:55;;;;;;;1.87;1.60;;;17.60;1.00;;;;;;5034318;28;20422;-80
2023/09/19 01:09:31;;;;;;;3.37;1.63;;;17.70;1.00;;;;;;5050892;28;20369;-80
2023/09/19 01:12:02;;;;;;;2.80;1.60;;;17.70;1.00;;;;;;5035813;28;20393;-80
2023/09/19 01:14:52;;;;;;;5.63;1.80;;;17.70;1.00;;;;;;5033176;28;20461;-80
2023/09/19 01:17:46;;;;;;;6.67;1.47;;;17.70;1.00;;;;;;5040366;28;20429;-80
2023/09/19 01:20:23;;;;;;;5.03;1.53;;;17.70;1.00;;;;;;5052418;28;20909;-80
2023/09/19 01:23:12;;;;;;;5.10;1.90;;;17.70;1.00;;;;;;5016699;28;20426;-80
2023/09/19 01:25:41;;;;;;;1.60;1.50;;;17.70;1.00;;;;;;5031065;28;20419;-80
2023/09/19 01:28:41;;;;;;;2.80;1.80;;;17.70;1.00;;;;;;5036030;28;20434;-81
2023/09/19 01:31:28;;;;;;;3.70;1.87;;;17.70;1.00;;;;;;5052903;28;20431;-81
2023/09/19 01:33:59;;;;;;;9.30;1.70;;;17.70;1.00;;;;;;5035572;28;20476;-78
2023/09/19 01:36:36;;;;;;;3.33;1.83;;;17.70;1.00;;;;;;5038665;28;20417;-78
2023/09/19 01:39:24;;;;;;;2.50;1.20;;;17.60;1.00;;;;;;5038591;28;20422;-78
2023/09/19 01:42:19;;;;;;;6.33;1.30;;;17.70;1.00;;;;;;5033339;28;20819;-78
2023/09/19 01:45:02;;;;;;;2.07;1.80;;;17.70;1.00;;;;;;5048458;28;20497;-78
2023/09/19 01:47:50;;;;;;;4.37;2.10;;;17.70;1.00;;;;;;5024981;28;20504;-78
2023/09/19 01:50:41;;;;;;;3.23;2.10;;;17.60;1.00;;;;;;5021468;28;20430;-80
2023/09/19 01:53:48;;;;;;;5.90;2.03;;;17.70;1.00;;;;;;5035005;28;20504;-81
2023/09/19 01:56:23;;;;;;;4.23;2.33;;;17.60;1.00;;;;;;5033657;28;20432;-80
2023/09/19 01:58:59;;;;;;;8.20;2.00;;;17.60;1.00;;;;;;5028572;28;20760;-80
2023/09/19 02:01:49;;;;;;;4.73;1.80;;;17.50;1.00;;;;;;5047027;28;20919;-81
2023/09/19 02:04:19;;;;;;;2.73;1.90;;;17.50;1.00;;;;;;5041441;28;20444;-78
2023/09/19 02:06:49;;;;;;;6.17;1.93;;;17.40;1.00;;;;;;5054648;28;20869;-79
2023/09/19 02:09:19;;;;;;;4.73;1.73;;;17.30;1.00;;;;;;5036848;28;20830;-79
2023/09/19 02:11:49;;;;;;;2.57;2.10;;;17.40;1.00;;;;;;5048099;28;20899;-78
2023/09/19 02:14:19;;;;;;;2.13;1.90;;;17.40;1.00;;;;;;5022509;28;20456;-77
2023/09/19 02:17:01;;;;;;;5.77;1.97;;;17.40;1.00;;;;;;5035868;28;20457;-82
2023/09/19 02:19:38;;;;;;;1.70;1.60;;;17.40;1.00;;;;;;5035618;28;20422;-79
2023/09/19 02:22:09;;;;;;;2.37;2.00;;;17.30;1.00;;;;;;5034908;28;20417;-78
2023/09/19 02:24:38;;;;;;;4.03;1.80;;;17.20;1.00;;;;;;5027349;28;20442;-78
2023/09/19 02:27:07;;;;;;;5.97;2.13;;;17.20;1.00;;;;;;5025155;28;20421;-78
2023/09/19 02:29:49;;;;;;;4.60;2.07;;;17.10;1.00;;;;;;5032720;28;20425;-78
2023/09/19 02:32:31;;;;;;;4.67;2.00;;;17.00;1.00;;;;;;5022505;28;20416;-78
2023/09/19 02:35:14;;;;;;;5.37;1.87;;;17.00;1.00;;;;;;5038947;28;20436;-82
2023/09/19 02:37:43;;;;;;;4.93;1.93;;;16.80;1.00;;;;;;5039965;28;20429;-81
2023/09/19 02:40:19;;;;;;;7.87;2.47;;;16.80;1.00;;;;;;5030875;28;20863;-80
2023/09/19 02:42:52;;;;;;;2.27;2.03;;;16.80;1.00;;;;;;5048701;28;20431;-80
2023/09/19 02:45:19;;;;;;;2.97;2.10;;;16.70;1.00;;;;;;5017092;28;20445;-80
2023/09/19 02:48:07;;;;;;;5.50;2.20;;;16.70;1.00;;;;;;5035540;28;20827;-80
2023/09/19 02:50:44;;;;;;;3.73;2.33;;;16.60;1.00;;;;;;5038792;28;20455;-81
2023/09/19 02:53:25;;;;;;;4.20;2.43;;;16.60;1.20;;;;;;5027323;28;20449;-80
2023/09/19 02:59:12;;;;;;;3.70;2.30;;;16.40;4.10;;;;;;5033598;28;20423;-87
2023/09/19 03:02:12;;;;;;;3.30;2.93;;;16.40;5.90;;;;;;5033826;28;20900;-87
2023/09/19 03:08:51;;;;;;;4.57;3.13;;;16.30;11.80;;;;;;5033130;28;20486;-88
2023/09/19 03:11:49;;;;;;;4.73;2.80;;;16.20;12.30;;;;;;5026345;28;20433;-89
2023/09/19 03:14:55;;;;;;;5.67;2.53;;;16.20;19.40;;;;;;5030808;28;20515;-87
2023/09/19 03:24:05;;;;;;;10.57;3.63;;;16.00;21.10;;;;;;5029449;28;20377;-89
2023/09/19 03:26:31;;;;;;;6.10;3.63;;;16.00;24.40;;;;;;5033084;28;20432;-88
2023/09/19 03:36:07;;;;;;;5.60;3.30;;;16.00;25.80;;;;;;5054423;28;20415;-87
2023/09/19 03:38:34;;;;;;;5.53;3.40;;;15.90;25.90;;;;;;5038312;28;20379;-87
2023/09/19 03:41:42;;;;;;;4.63;3.27;;;15.80;27.70;;;;;;5036587;28;20419;-87
2023/09/19 03:44:36;;;;;;;5.33;2.83;;;15.90;31.20;;;;;;5038232;28;20392;-87
2023/09/19 03:50:24;;;;;;;6.70;3.13;;;15.80;38.20;;;;;;5056200;28;20532;-87
2023/09/19 03:59:35;;;;;;;11.30;3.70;;;15.80;37.10;;;;;;5038394;28;20442;-87
2023/09/19 04:02:02;;;;;;;8.33;3.50;;;15.80;32.70;;;;;;5043153;28;20400;-86
2023/09/19 04:04:43;;;;;;;9.17;3.10;;;15.70;36.80;;;;;;5044574;28;20439;-87
2023/09/19 04:07:08;;;;;;;8.90;3.43;;;15.70;34.20;;;;;;5046068;28;20412;-87
2023/09/19 04:10:01;;;;;;;8.03;3.03;;;15.70;32.40;;;;;;5041151;28;20398;-87
2023/09/19 04:13:18;;;;;;;3.10;2.90;;;15.70;30.20;;;;;;5043381;28;20174;-86
2023/09/19 04:19:06;;;;;;;6.50;3.53;;;15.60;29.40;;;;;;5025260;28;20404;-87
2023/09/19 04:21:54;;;;;;;4.93;2.97;;;15.70;31.40;;;;;;5029383;28;20431;-88
2023/09/19 04:31:04;;;;;;;3.10;2.80;;;15.80;29.50;;;;;;5025519;28;20384;-89
2023/09/19 04:36:52;;;;;;;7.63;2.83;;;16.00;21.30;;;;;;5029992;28;20208;-87
2023/09/19 04:39:25;;;;;;;3.53;2.03;;;16.00;16.00;;;;;;5039292;28;20405;-87
2023/09/19 04:42:14;;;;;;;7.43;2.50;;;16.00;10.80;;;;;;5049529;28;20403;-87
2023/09/19 04:48:02;;;;;;;8.00;2.20;;;16.00;5.30;;;;;;5049789;28;20644;-89
2023/09/19 04:53:49;;;;;;;2.40;2.20;;;15.90;1.70;;;;;;5047849;28;20493;-89
2023/09/19 04:57:06;;;;;;;6.23;2.70;;;15.90;1.00;;;;;;5028459;28;20432;-89
2023/09/19 04:59:50;;;;;;;3.43;2.20;;;15.90;1.00;;;;;;5016048;28;20177;-89
2023/09/19 05:05:38;;;;;;;5.20;1.90;;;16.00;1.00;;;;;;5042376;28;20385;-89
2023/09/19 05:14:48;;;;;;;2.30;2.10;;;15.90;1.00;;;;;;5048914;28;20449;-89
2023/09/19 05:20:54;;;;;;;2.90;2.20;;;15.80;1.00;;;;;;5023498;28;20197;-88
2023/09/19 05:33:49;;;;;;;7.83;2.67;;;15.90;1.00;;;;;;5029549;28;20436;-89
2023/09/19 05:36:15;;;;;;;7.13;2.50;;;15.90;1.00;;;;;;5045632;28;20565;-89
2023/09/19 05:42:50;;;;;;;5.63;2.27;;;15.90;1.00;;;;;;5036181;28;20461;-88
2023/09/19 05:48:59;;;;;;;7.73;2.50;;;15.90;1.00;;;;;;5017792;28;20475;-89
2023/09/19 05:58:10;;;;;;;2.37;2.17;;;16.00;1.00;;;;;;5042451;28;20411;-89
2023/09/19 06:01:24;;;;;;;6.53;2.00;;;16.10;1.00;;;;;;5035862;28;20398;-89
2023/09/19 06:11:07;;;;;;;6.53;2.13;;;16.20;1.00;;;;;;5029970;28;20760;-89
2023/09/19 06:13:49;;;;;;;3.87;2.57;;;16.40;1.00;;;;;;5036486;28;20456;-89
2023/09/19 06:20:00;;;;;;;8.00;2.63;;;16.60;1.00;;;;;;5034973;28;20437;-88
2023/09/19 06:22:26;;;;;;;8.83;2.80;;;16.70;1.00;;;;;;5029296;28;20443;-89
2023/09/19 06:25:15;;;;;;;5.93;2.80;;;16.70;1.00;;;;;;5035720;28;20951;-89
2023/09/19 06:27:56;;;;;;;12.67;3.23;;;16.90;1.00;;;;;;5029630;28;20403;-89
2023/09/19 06:33:44;;;;;;;3.80;2.80;;;16.90;1.00;;;;;;5039754;28;20434;-89
2023/09/19 06:42:54;;;;;;;5.37;3.13;;;17.10;1.00;;;;;;5020892;28;20825;-89
2023/09/19 06:46:07;;;;;;;6.77;3.20;;;17.10;1.00;;;;;;5033770;28;20452;-89
2023/09/19 06:48:59;;;;;;;4.63;3.23;;;17.20;1.00;;;;;;5024560;28;20200;-89
2023/09/19 06:52:12;;;;;;;4.47;2.77;;;17.20;1.00;;;;;;5022851;28;20479;-88
2023/09/19 06:58:00;;;;;;;6.40;3.03;;;17.40;1.00;;;;;;5030583;28;20447;-88
2023/09/19 07:03:55;;;;;;;5.43;2.47;;;17.60;1.00;;;;;;5019385;28;20289;-89
2023/09/19 07:07:13;;;;;;;7.10;2.60;;;17.60;1.00;;;;;;5027941;28;20464;-88
2023/09/19 07:10:19;;;;;;;7.00;2.30;;;17.70;1.00;;;;;;5021202;28;20890;-89
2023/09/19 07:12:45;;;;;;;4.87;2.00;;;17.60;1.00;;;;;;5031482;28;20818;-89
2023/09/19 07:21:55;;;;;;;2.13;1.50;;;17.60;1.00;;;;;;5034347;28;20348;-88
2023/09/19 07:27:43;;;;;;;2.20;1.40;;;17.70;1.00;;;;;;5021771;28;20240;-89
2023/09/19 07:43:40;;;;;;;3.47;2.80;;;18.10;1.00;;;;;;5028439;28;20798;-81
2023/09/19 07:46:11;;;;;;;17.00;1.87;;;18.00;1.00;;;;;;5044667;28;20425;-80
2023/09/19 07:48:38;;;;;;;6.53;1.87;;;18.10;1.00;;;;;;5033411;28;20428;-80
2023/09/19 07:51:19;;;;;;;7.13;1.97;;;18.20;1.00;;;;;;5033050;28;20480;-80
2023/09/19 07:54:01;;;;;;;3.07;1.40;;;18.30;1.00;;;;;;5029828;28;20552;-81
2023/09/19 07:56:27;;;;;;;4.33;1.37;;;18.40;1.00;;;;;;5029573;28;20971;-80
2023/09/19 07:58:53;;;;;;;5.33;2.00;;;18.40;1.00;;;;;;5010847;28;20802;-81
2023/09/19 08:01:19;;;;;;;3.57;1.70;;;18.60;1.00;;;;;;5027838;28;20422;-80
2023/09/19 08:03:45;;;;;;;4.00;1.53;;;18.60;1.00;;;;;;5031444;28;20207;-81
2023/09/19 08:06:11;;;;;;;1.50;1.40;;;18.50;1.00;;;;;;5018070;28;20596;-81
2023/09/19 08:08:37;;;;;;;3.90;2.00;;;18.60;1.00;;;;;;5029220;28;20473;-80
2023/09/19 08:11:11;;;;;;;4.97;1.90;;;18.60;1.00;;;;;;5029451;28;20438;-80
2023/09/19 08:13:43;;;;;;;3.60;1.90;;;18.80;1.00;;;;;;5028638;28;20633;-80
2023/09/19 08:16:14;;;;;;;2.67;1.50;;;18.80;1.00;;;;;;5023978;28;20410;-80
2023/09/19 08:18:41;;;;;;;3.73;1.70;;;18.90;1.00;;;;;;5031234;28;20437;-81
2023/09/19 08:21:14;;;;;;;3.07;1.40;;;19.00;1.00;;;;;;5043411;28;20481;-81
2023/09/19 08:23:40;;;;;;;2.60;1.30;;;18.90;1.00;;;;;;5044902;28;20502;-80
2023/09/19 08:26:07;;;;;;;1.73;1.63;;;19.00;1.00;;;;;;5033115;28;20441;-80
2023/09/19 08:28:37;;;;;;;4.10;1.53;;;19.00;1.00;;;;;;5041603;28;20429;-80
2023/09/19 08:31:06;;;;;;;6.90;1.80;;;19.10;1.00;;;;;;5040920;28;20485;-80
2023/09/19 08:33:36;;;;;;;3.87;1.43;;;19.10;1.00;;;;;;5040368;28;20996;-80
2023/09/19 08:36:07;;;;;;;3.53;1.40;;;18.90;1.00;;;;;;5042482;28;20430;-80
2023/09/19 08:38:54;;;;;;;4.27;1.60;;;19.00;1.00;;;;;;5035671;28;20420;-80
2023/09/19 08:41:31;;;;;;;3.20;1.13;;;19.00;1.00;;;;;;5042603;28;20440;-80
2023/09/19 08:47:32;;;;;;;2.50;1.67;;;19.20;1.00;;;;;;5027112;28;20434;-80
2023/09/19 08:50:14;;;;;;;4.60;1.27;;;19.10;1.00;;;;;;5036358;28;20537;-81
2023/09/19 08:52:46;;;;;;;5.33;1.40;;;19.00;1.00;;;;;;5040388;28;20428;-80
2023/09/19 08:55:43;;;;;;;4.87;1.80;;;18.90;1.00;;;;;;5046965;28;20454;-80
2023/09/19 08:58:16;;;;;;;5.30;1.40;;;18.90;1.00;;;;;;5040553;28;20404;-80
2023/09/19 09:00:49;;;;;;;6.27;1.40;;;19.10;1.00;;;;;;5039536;28;20426;-80
2023/09/19 09:03:37;;;;;;;2.70;1.10;;;18.90;1.00;;;;;;5034505;28;20404;-79
2023/09/19 09:06:43;;;;;;;4.07;1.53;;;19.20;1.00;;;;;;5028597;28;20485;-79
2023/09/19 09:09:13;;;;;;;3.80;1.90;;;19.20;1.00;;;;;;5026056;28;20415;-80
2023/09/19 09:11:43;;;;;;;4.20;1.23;;;19.20;1.00;;;;;;5030646;28;20425;-80
2023/09/19 09:14:25;;;;;;;3.63;1.60;;;19.10;1.00;;;;;;5018720;28;20452;-80
2023/09/19 09:17:24;;;;;;;4.17;2.10;;;19.10;1.00;;;;;;5044189;28;20431;-79
2023/09/19 09:19:55;;;;;;;6.53;1.40;;;19.00;1.00;;;;;;5032052;28;20437;-79
2023/09/19 09:22:25;;;;;;;6.50;1.70;;;19.10;1.00;;;;;;5046725;28;20782;-79
2023/09/19 09:25:30;;;;;;;6.57;1.63;;;19.20;1.00;;;;;;5031336;28;20428;-80
2023/09/19 09:28:02;;;;;;;2.70;1.30;;;19.30;1.00;;;;;;5027177;28;20419;-79
2023/09/19 09:30:40;;;;;;;5.93;1.60;;;19.40;1.00;;;;;;5049057;28;21148;-79
2023/09/19 09:33:15;;;;;;;2.77;1.80;;;19.40;1.00;;;;;;5022828;28;20447;-78
2023/09/19 09:35:56;;;;;;;4.73;1.60;;;19.40;1.00;;;;;;5047250;28;20414;-79
2023/09/19 09:38:57;;;;;;;4.70;1.70;;;19.40;1.00;;;;;;5041786;28;20787;-79
2023/09/19 09:41:37;;;;;;;7.40;2.00;;;19.50;1.00;;;;;;4964681;28;20519;-80
2023/09/19 09:44:17;;;;;;;4.27;1.57;;;19.60;1.00;;;;;;4960276;28;20513;-82
2023/09/19 09:49:54;;;;;;;8.00;1.53;;;19.50;1.00;;;;;;4962914;28;20496;-81
2023/09/19 09:53:07;;;;;;;3.80;1.40;;;19.50;1.00;;;;;;4963936;28;20469;-80
2023/09/19 09:56:07;;;;;;;8.33;1.40;;;19.50;1.00;;;;;;4968531;28;20577;-80
2023/09/19 09:59:17;;;;;;;3.67;1.37;;;19.40;1.00;;;;;;4973114;28;20928;-79
2023/09/19 10:02:02;;;;;;;4.93;1.57;;;19.20;1.00;;;;;;4954421;29;20434;-79
2023/09/19 10:04:44;;;;;;;4.30;1.37;;;19.10;1.00;;;;;;4957047;28;20434;-79
2023/09/19 10:07:42;;;;;;;4.67;1.40;;;19.10;1.00;;;;;;4969616;28;20564;-77
2023/09/19 10:10:21;;;;;;;6.33;1.40;;;19.10;1.00;;;;;;4920690;29;20440;-79
2023/09/19 10:12:48;;;;;;;9.97;2.23;;;19.20;1.00;;;;;;4935199;29;20507;-80
2023/09/19 10:15:20;;;;;;;13.13;1.60;;;19.20;1.00;;;;;;4934798;29;20511;-80
2023/09/19 10:18:04;;;;;;;4.20;1.67;;;19.10;1.00;;;;;;4942188;29;20568;-79
2023/09/19 10:20:35;;;;;;;8.27;2.00;;;18.90;1.00;;;;;;4941198;29;21479;-79
2023/09/19 10:23:13;;;;;;;5.30;1.83;;;19.00;1.00;;;;;;4949353;29;20517;-79
2023/09/19 10:25:47;;;;;;;4.40;1.80;;;19.10;1.00;;;;;;4954454;29;20424;-77
2023/09/19 10:28:30;;;;;;;7.43;1.70;;;19.10;1.00;;;;;;4948794;28;20921;-77
2023/09/19 10:31:19;;;;;;;5.93;1.90;;;19.20;1.00;;;;;;4954181;29;20418;-76
2023/09/19 10:33:50;;;;;;;6.87;1.63;;;19.40;1.00;;;;;;4946597;28;20850;-76
2023/09/19 10:36:20;;;;;;;3.93;1.53;;;19.60;1.00;;;;;;4938032;29;20431;-78
2023/09/19 10:38:50;;;;;;;5.40;2.00;;;19.60;1.00;;;;;;4953727;29;20435;-78
2023/09/19 10:41:22;;;;;;;2.97;1.60;;;19.50;1.00;;;;;;4951799;28;20950;-80
2023/09/19 10:43:51;;;;;;;4.40;1.63;;;19.90;1.00;;;;;;4951037;29;20428;-78
2023/09/19 10:46:19;;;;;;;5.10;1.70;;;20.40;1.00;;;;;;4984010;28;20448;-77
2023/09/19 10:48:53;;;;;;;3.37;1.57;;;20.50;1.00;;;;;;5031426;28;20437;-79
2023/09/19 10:51:39;;;;;;;4.57;1.53;;;20.50;1.00;;;;;;5032397;28;20434;-75
2023/09/19 10:54:15;;;;;;;10.43;2.17;;;20.40;1.00;;;;;;5054086;28;20453;-75
2023/09/19 10:57:24;;;;;;;4.37;1.80;;;20.30;1.00;;;;;;5034968;28;20441;-83
2023/09/19 11:00:26;;;;;;;3.83;1.50;;;20.40;1.00;;;;;;5033365;28;20822;-79
2023/09/19 11:03:14;;;;;;;8.33;2.17;;;20.40;1.00;;;;;;5045884;28;20511;-80
2023/09/19 11:06:16;;;;;;;6.27;2.03;;;20.30;1.00;;;;;;5044846;28;20424;-88
2023/09/19 11:11:42;;;;;;;9.97;2.17;;;20.60;1.00;;;;;;5022779;28;20413;-74
2023/09/19 11:14:24;;;;;;;7.13;1.77;;;20.70;1.00;;;;;;5034281;28;20551;-74
2023/09/19 11:17:09;;;;;;;10.07;1.93;;;20.50;1.00;;;;;;5043833;28;20439;-74
2023/09/19 11:22:59;;;;;;;5.00;1.73;;;20.60;1.00;;;;;;5048604;28;20389;-74
2023/09/19 11:25:32;;;;;;;3.73;2.00;;;20.70;1.00;;;;;;5034101;28;20412;-80
2023/09/19 11:28:42;;;;;;;4.07;1.40;;;20.90;1.00;;;;;;5039485;28;20422;-81
2023/09/19 11:31:44;;;;;;;7.10;1.47;;;20.90;1.00;;;;;;5037168;28;20422;-83
2023/09/19 11:34:47;;;;;;;3.47;1.30;;;21.20;1.00;;;;;;4981912;28;20464;-81
2023/09/19 11:37:32;;;;;;;2.93;1.73;;;21.20;1.00;;;;;;4918009;29;20484;-83
2023/09/19 11:40:19;;;;;;;4.20;1.40;;;21.20;1.00;;;;;;4911306;29;20438;-82
2023/09/19 11:43:34;;;;;;;6.27;2.00;;;21.30;1.00;;;;;;4914911;29;20430;-79
2023/09/19 11:46:07;;;;;;;6.03;1.60;;;21.00;1.00;;;;;;4909435;29;20438;-79
2023/09/19 11:48:40;;;;;;;9.20;1.27;;;21.20;1.00;;;;;;4913182;29;20443;-80
2023/09/19 11:51:19;;;;;;;7.50;1.53;;;21.20;1.00;;;;;;4926969;29;20464;-80
2023/09/19 11:53:49;;;;;;;3.37;1.40;;;21.20;1.00;;;;;;4927115;29;20461;-80
2023/09/19 11:56:27;;;;;;;11.50;2.40;;;20.80;1.00;;;;;;4930407;29;20407;-78
2023/09/19 11:58:57;;;;;;;5.43;2.13;;;20.80;1.00;;;;;;4919237;29;20538;-77
2023/09/19 12:01:34;;;;;;;3.70;1.80;;;21.00;1.00;;;;;;4917747;29;20446;-76
2023/09/19 12:04:04;;;;;;;10.17;1.90;;;21.30;1.00;;;;;;4916705;29;20451;-76
2023/09/19 12:06:32;;;;;;;4.80;1.80;;;21.50;1.00;;;;;;4918037;29;20429;-76
2023/09/19 12:08:59;;;;;;;4.07;1.63;;;21.50;1.00;;;;;;4919645;29;20448;-76
2023/09/19 12:11:43;;;;;;;6.53;1.70;;;21.50;1.00;;;;;;5001609;28;20440;-82
2023/09/19 12:14:22;;;;;;;3.13;1.43;;;21.50;1.00;;;;;;5054213;28;20446;-82
2023/09/19 12:16:56;;;;;;;11.90;2.70;;;21.60;1.00;;;;;;5044813;28;20418;-81
2023/09/19 12:19:31;;;;;;;11.00;1.60;;;21.80;1.00;;;;;;5025749;28;20423;-82
2023/09/19 12:22:05;;;;;;;9.43;2.00;;;22.00;1.00;;;;;;5029381;28;20420;-82
2023/09/19 12:24:44;;;;;;;12.90;1.90;;;21.90;1.00;;;;;;5042293;28;20402;-81
2023/09/19 12:27:13;;;;;;;4.20;1.63;;;22.10;1.00;;;;;;5036151;28;20426;-82
2023/09/19 12:29:50;;;;;;;2.43;1.20;;;22.10;1.00;;;;;;5036905;28;20427;-81
2023/09/19 12:32:40;;;;;;;6.97;1.43;;;22.20;1.00;;;;;;5032212;28;20425;-83
2023/09/19 12:35:31;;;;;;;1.77;1.00;;;22.40;1.00;;;;;;5056407;28;20533;-84
2023/09/19 12:38:03;;;;;;;4.87;1.60;;;22.00;1.00;;;;;;5045755;28;20422;-84
2023/09/19 12:40:42;;;;;;;4.67;1.43;;;21.90;1.00;;;;;;5043424;28;20526;-81
2023/09/19 12:43:15;;;;;;;6.07;1.47;;;21.70;1.00;;;;;;5025258;28;20414;-81
2023/09/19 12:45:49;;;;;;;2.23;1.40;;;21.80;1.00;;;;;;5047772;28;20433;-81
2023/09/19 12:48:32;;;;;;;6.87;1.20;;;21.80;1.00;;;;;;5036072;28;20450;-82
2023/09/19 12:51:05;;;;;;;4.23;1.63;;;22.00;1.00;;;;;;5027858;28;20463;-84
2023/09/19 12:53:45;;;;;;;5.27;1.40;;;22.00;1.00;;;;;;5029608;28;20450;-84
2023/09/19 12:56:19;;;;;;;5.23;1.37;;;22.10;1.00;;;;;;5021267;28;20947;-81
2023/09/19 12:58:58;;;;;;;9.17;1.43;;;22.20;1.00;;;;;;5043172;28;20426;-81
2023/09/19 13:01:29;;;;;;;2.13;1.00;;;22.40;1.00;;;;;;5036537;28;20427;-81
2023/09/19 13:04:15;;;;;;;4.00;1.00;;;22.50;1.00;;;;;;5028141;28;20906;-81
2023/09/19 13:06:43;;;;;;;4.33;1.60;;;22.40;1.00;;;;;;5026948;28;20403;-80
2023/09/19 13:09:10;;;;;;;4.13;1.90;;;22.40;1.00;;;;;;5023800;28;20815;-82
2023/09/19 13:11:43;;;;;;;6.97;1.47;;;22.30;1.00;;;;;;5044264;28;20426;-78
2023/09/19 13:14:44;;;;;;;2.50;1.10;;;22.20;1.00;;;;;;5049819;28;20456;-78
2023/09/19 13:17:16;;;;;;;2.97;1.10;;;22.50;1.00;;;;;;5027848;28;20411;-78
2023/09/19 13:19:52;;;;;;;4.40;1.50;;;22.70;1.00;;;;;;5028500;28;20404;-82
2023/09/19 13:22:42;;;;;;;4.30;1.20;;;22.60;1.00;;;;;;5038376;28;20472;-81
2023/09/19 13:25:17;;;;;;;4.87;1.47;;;22.60;1.00;;;;;;5015579;28;20467;-85
2023/09/19 13:27:55;;;;;;;2.80;1.30;;;21.00;1.00;;;;;;5022647;28;20431;-77
2023/09/19 13:30:37;;;;;;;5.00;1.53;;;22.70;1.00;;;;;;5044128;28;20433;-77
2023/09/19 13:33:07;;;;;;;5.30;1.40;;;22.90;1.00;;;;;;5027256;28;20424;-77
2023/09/19 13:35:33;;;;;;;8.37;1.40;;;22.90;1.00;;;;;;5049355;28;20437;-77
2023/09/19 13:38:11;;;;;;;4.47;1.60;;;23.10;1.00;;;;;;5028545;28;20425;-77
2023/09/19 13:40:39;;;;;;;5.37;1.60;;;23.20;1.00;;;;;;5022204;28;20761;-77
2023/09/19 13:43:13;;;;;;;7.43;1.60;;;23.30;1.00;;;;;;5023445;28;20414;-77
2023/09/19 13:45:42;;;;;;;4.17;1.50;;;23.60;1.00;;;;;;5047012;28;20894;-76
2023/09/19 13:48:13;;;;;;;3.67;1.20;;;23.50;1.00;;;;;;5050910;28;20433;-76
2023/09/19 13:50:43;;;;;;;4.43;1.27;;;23.50;1.00;;;;;;5038471;28;20444;-76
2023/09/19 13:53:19;;;;;;;7.03;1.37;;;23.10;1.00;;;;;;5034991;28;20948;-77
2023/09/19 13:55:45;;;;;;;5.30;1.27;;;22.90;1.00;;;;;;5026718;28;20988;-89
2023/09/19 13:58:43;;;;;;;3.80;1.23;;;22.70;1.00;;;;;;5038819;28;20429;-88
2023/09/19 14:01:42;;;;;;;5.43;1.20;;;22.80;1.00;;;;;;5029266;28;20188;-88
2023/09/19 14:04:43;;;;;;;2.70;1.40;;;22.90;1.00;;;;;;5034723;28;20449;-89
2023/09/19 14:07:15;;;;;;;2.97;1.50;;;22.90;1.00;;;;;;5030857;28;20417;-88
2023/09/19 14:09:43;;;;;;;5.03;1.33;;;;;;;;;;5028284;28;20524;-88
2023/09/19 14:12:14;;;;;;;6.83;1.30;;;22.90;1.00;;;;;;5030262;28;20429;-88
2023/09/19 14:14:45;;;;;;;3.83;1.40;;;22.80;1.00;;;;;;5035273;28;20498;-89
2023/09/19 14:17:13;;;;;;;5.97;1.10;;;22.60;1.00;;;;;;5033616;28;20935;-88
2023/09/19 14:19:55;;;;;;;1.77;0.97;;;22.50;1.00;;;;;;5034202;28;20429;-88
2023/09/19 14:22:25;;;;;;;2.50;1.00;;;22.60;1.00;;;;;;5045374;28;20422;-87
2023/09/19 14:25:09;;;;;;;4.47;1.30;;;22.60;1.00;;;;;;5033703;28;20441;-87
2023/09/19 14:28:12;;;;;;;3.00;1.30;;;22.80;1.00;;;;;;5037586;28;20427;-88
2023/09/19 14:34:14;;;;;;;4.37;1.07;;;22.60;1.00;;;;;;5034352;28;20478;-88
2023/09/19 14:36:43;;;;;;;4.80;1.10;;;22.70;1.00;;;;;;5037624;28;20428;-90
2023/09/19 14:39:19;;;;;;;2.07;0.90;;;22.60;1.00;;;;;;5029632;28;20509;-88
2023/09/19 14:41:45;;;;;;;6.03;1.63;;;22.60;1.00;;;;;;5034583;28;20504;-90
2023/09/19 14:44:11;;;;;;;1.27;1.00;;;22.60;1.00;;;;;;5037274;28;20441;-91
2023/09/19 14:46:37;;;;;;;1.67;1.07;;;22.70;1.00;;;;;;5034258;28;20182;-88
2023/09/19 14:49:04;;;;;;;11.30;1.87;;;22.70;1.00;;;;;;5031341;28;20198;-88
2023/09/19 14:51:47;;;;;;;8.77;2.63;;;22.70;1.00;;;;;;5038473;28;20441;-89
2023/09/19 14:54:16;;;;;;;3.90;1.10;;;22.80;1.00;;;;;;5034252;28;20572;-90
2023/09/19 14:57:14;;;;;;;4.90;1.40;;;22.90;1.00;;;;;;5032900;28;20490;-93
2023/09/19 15:03:02;;;;;;;5.03;1.30;;;23.00;1.00;;;;;;5049709;28;20412;-91
2023/09/19 15:05:31;;;;;;;2.70;1.30;;;23.10;1.00;;;;;;5039048;28;20806;-91
2023/09/19 15:08:47;;;;;;;3.20;1.17;;;23.20;1.00;;;;;;5026754;28;20286;-87
2023/09/19 15:11:16;;;;;;;3.43;1.23;;;23.80;1.00;;;;;;5024332;28;20512;-85
2023/09/19 15:14:12;;;;;;;4.60;1.13;;;23.90;1.00;;;;;;5035400;28;20521;-89
2023/09/19 15:17:13;;;;;;;3.50;1.10;;;24.10;1.00;;;;;;5030277;28;20435;-88
2023/09/19 15:20:13;;;;;;;2.67;1.37;;;24.10;1.00;;;;;;5026608;28;20424;-88
2023/09/19 15:22:44;;;;;;;1.93;0.80;;;24.30;1.00;;;;;;5033186;28;20468;-89
2023/09/19 15:32:42;;;;;;;4.30;1.17;;;25.20;1.00;;;;;;5033961;28;20440;-88
2023/09/19 15:35:13;;;;;;;1.43;1.20;;;25.90;1.00;;;;;;5025684;28;20462;-87
2023/09/19 15:37:43;;;;;;;1.93;1.40;;;26.50;1.00;;;;;;5031459;28;20446;-87
2023/09/19 15:40:46;;;;;;;3.60;1.00;;;27.60;1.00;;;;;;5042121;28;20425;-88
2023/09/19 15:43:14;;;;;;;4.70;1.37;;;27.60;1.00;;;;;;5026854;28;20479;-86
2023/09/19 15:46:01;;;;;;;2.10;1.10;;;27.10;1.00;;;;;;5025330;28;20427;-86
2023/09/19 15:49:00;;;;;;;2.47;0.90;;;27.40;1.00;;;;;;5042572;28;20523;-87
2023/09/19 15:51:26;;;;;;;5.43;1.33;;;28.10;1.00;;;;;;5045223;28;20437;-86
2023/09/19 15:54:14;;;;;;;1.43;0.93;;;28.40;1.00;;;;;;5045348;28;20492;-86
2023/09/19 15:57:13;;;;;;;1.27;0.77;;;28.50;1.00;;;;;;5033133;28;20849;-86
2023/09/19 15:59:44;;;;;;;2.00;1.00;;;28.30;1.00;;;;;;5030656;28;20472;-86
2023/09/19 16:02:19;;;;;;;3.63;1.20;;;28.10;1.00;;;;;;5022129;28;20427;-86
2023/09/19 16:05:13;;;;;;;3.50;0.93;;;27.40;1.00;;;;;;5025636;28;20449;-86
2023/09/19 16:07:43;;;;;;;2.70;1.07;;;27.20;1.00;;;;;;5032466;28;20937;-91
2023/09/19 16:10:13;;;;;;;3.43;1.00;;;27.20;1.00;;;;;;5031050;28;20433;-81
2023/09/19 16:12:43;;;;;;;6.10;1.10;;;26.60;1.00;;;;;;5024075;28;20462;-81
2023/09/19 16:15:15;;;;;;;2.90;1.10;;;26.50;1.00;;;;;;5037235;28;20516;-81
2023/09/19 16:18:12;;;;;;;3.07;1.03;;;27.10;1.00;;;;;;5042204;28;20421;-86
2023/09/19 16:20:43;;;;;;;3.37;1.00;;;27.60;1.00;;;;;;5036706;28;20457;-87
2023/09/19 16:23:13;;;;;;;1.47;1.23;;;27.50;1.00;;;;;;5023039;28;20986;-86
2023/09/19 16:25:44;;;;;;;2.07;1.00;;;27.00;1.00;;;;;;5032618;28;20589;-85
2023/09/19 16:28:13;;;;;;;4.43;1.20;;;26.90;1.00;;;;;;5040454;28;20425;-85
2023/09/19 16:30:43;;;;;;;6.23;1.10;;;26.70;1.00;;;;;;5040169;28;20804;-85
2023/09/19 16:33:13;;;;;;;3.17;1.10;;;26.40;1.00;;;;;;5032530;28;20948;-85
2023/09/19 16:35:43;;;;;;;3.43;0.90;;;25.70;1.00;;;;;;5041361;28;20433;-82
2023/09/19 16:38:26;;;;;;;3.17;0.80;;;24.90;1.00;;;;;;5032312;28;20927;-83
2023/09/19 16:41:13;;;;;;;3.10;1.13;;;24.40;1.00;;;;;;5023281;28;20538;-83
2023/09/19 16:43:46;;;;;;;10.80;1.37;;;23.60;1.00;;;;;;5031472;28;20443;-83